sensor_id;sensor_type;location;lat;lon;timestamp;pressure;altitude;pressure_sealevel;temperature;humidity
21203;BME280;10759;51.982;9.232;2022-11-15T00:00:19;99905.78;;;7.74;100.00
21203;BME280;10759;51.982;9.232;2022-11-15T00:03:06;99906.78;;;7.71;100.00
21203;BME280;10759;51.982;9.232;2022-11-15T00:05:53;99910.00;;;7.81;100.00
21203;BME280;10759;51.982;9.232;2022-11-15T00:08:41;99907.22;;;7.84;100.00
21203;BME280;10759;51.982;9.232;2022-11-15T00:11:28;99909.78;;;7.87;100.00
21203;BME280;10759;51.982;9.232;2022-11-15T00:14:14;99911.72;;;7.82;100.00
21203;BME280;10759;51.982;9.232;2022-11-15T00:17:01;99906.31;;;7.85;100.00
21203;BME280;10759;51.982;9.232;2022-11-15T00:19:48;99910.97;;;8.05;100.00
21203;BME280;10759;51.982;9.232;2022-11-15T00:22:34;99913.97;;;7.94;100.00
21203;BME280;10759;51.982;9.232;2022-11-15T00:25:22;99901.09;;;8.07;100.00
21203;BME280;10759;51.982;9.232;2022-11-15T00:28:09;99897.34;;;8.13;100.00
21203;BME280;10759;51.982;9.232;2022-11-15T00:31:00;99892.19;;;8.07;100.00
21203;BME280;10759;51.982;9.232;2022-11-15T00:33:46;99896.47;;;8.12;100.00
21203;BME280;10759;51.982;9.232;2022-11-15T00:36:33;99899.22;;;8.09;100.00
21203;BME280;10759;51.982;9.232;2022-11-15T00:39:20;99893.03;;;8.09;100.00
21203;BME280;10759;51.982;9.232;2022-11-15T00:42:08;99897.66;;;8.04;100.00
21203;BME280;10759;51.982;9.232;2022-11-15T00:44:55;99887.66;;;8.10;100.00
21203;BME280;10759;51.982;9.232;2022-11-15T00:47:44;99843.63;;;7.97;100.00
21203;BME280;10759;51.982;9.232;2022-11-15T00:50:30;99875.97;;;8.38;100.00
21203;BME280;10759;51.982;9.232;2022-11-15T00:53:17;99853.94;;;8.56;100.00
21203;BME280;10759;51.982;9.232;2022-11-15T00:56:04;99854.63;;;8.85;100.00
21203;BME280;10759;51.982;9.232;2022-11-15T00:58:53;99880.00;;;9.19;100.00
21203;BME280;10759;51.982;9.232;2022-11-15T01:01:39;99886.69;;;9.31;100.00
21203;BME280;10759;51.982;9.232;2022-11-15T01:04:26;99879.19;;;9.39;100.00
21203;BME280;10759;51.982;9.232;2022-11-15T01:07:12;99873.72;;;9.42;100.00
21203;BME280;10759;51.982;9.232;2022-11-15T01:09:59;99821.13;;;9.20;100.00
21203;BME280;10759;51.982;9.232;2022-11-15T01:12:46;99872.03;;;9.61;100.00
21203;BME280;10759;51.982;9.232;2022-11-15T01:15:34;99865.47;;;9.68;100.00
21203;BME280;10759;51.982;9.232;2022-11-15T01:18:21;99859.19;;;9.70;100.00
21203;BME280;10759;51.982;9.232;2022-11-15T01:21:09;99853.16;;;9.64;100.00
21203;BME280;10759;51.982;9.232;2022-11-15T01:23:56;99811.50;;;9.38;100.00
21203;BME280;10759;51.982;9.232;2022-11-15T01:26:43;99855.59;;;9.71;100.00
21203;BME280;10759;51.982;9.232;2022-11-15T01:29:29;99851.34;;;9.87;100.00
21203;BME280;10759;51.982;9.232;2022-11-15T01:32:18;99848.09;;;9.79;100.00
21203;BME280;10759;51.982;9.232;2022-11-15T01:35:05;99842.59;;;9.82;100.00
21203;BME280;10759;51.982;9.232;2022-11-15T01:37:52;99839.53;;;9.71;100.00
21203;BME280;10759;51.982;9.232;2022-11-15T01:40:38;99826.84;;;9.76;100.00
21203;BME280;10759;51.982;9.232;2022-11-15T01:43:28;99729.94;;;9.28;100.00
21203;BME280;10759;51.982;9.232;2022-11-15T01:46:23;99831.66;;;9.88;100.00
21203;BME280;10759;51.982;9.232;2022-11-15T01:49:15;99813.66;;;9.71;100.00
21203;BME280;10759;51.982;9.232;2022-11-15T01:52:05;99830.78;;;9.87;100.00
21203;BME280;10759;51.982;9.232;2022-11-15T01:54:56;99832.84;;;9.81;100.00
21203;BME280;10759;51.982;9.232;2022-11-15T01:57:47;99835.38;;;9.84;100.00
21203;BME280;10759;51.982;9.232;2022-11-15T02:00:35;99825.44;;;9.87;100.00
21203;BME280;10759;51.982;9.232;2022-11-15T02:03:25;99827.63;;;9.98;100.00
21203;BME280;10759;51.982;9.232;2022-11-15T02:06:14;99819.59;;;9.98;100.00
21203;BME280;10759;51.982;9.232;2022-11-15T02:09:01;99828.50;;;9.99;100.00
21203;BME280;10759;51.982;9.232;2022-11-15T02:11:48;99800.34;;;9.90;100.00
21203;BME280;10759;51.982;9.232;2022-11-15T02:14:38;99815.31;;;9.94;100.00
21203;BME280;10759;51.982;9.232;2022-11-15T02:17:37;99813.06;;;9.85;100.00
21203;BME280;10759;51.982;9.232;2022-11-15T02:20:39;99786.56;;;9.58;100.00
21203;BME280;10759;51.982;9.232;2022-11-15T02:23:56;99808.28;;;9.71;100.00
21203;BME280;10759;51.982;9.232;2022-11-15T02:27:12;99804.56;;;9.75;100.00
21203;BME280;10759;51.982;9.232;2022-11-15T02:30:22;99815.53;;;9.89;100.00
21203;BME280;10759;51.982;9.232;2022-11-15T02:33:17;99812.72;;;9.93;100.00
21203;BME280;10759;51.982;9.232;2022-11-15T02:36:11;99810.25;;;9.88;100.00
21203;BME280;10759;51.982;9.232;2022-11-15T02:39:05;99823.81;;;10.04;100.00
21203;BME280;10759;51.982;9.232;2022-11-15T02:41:55;99780.94;;;9.85;100.00
21203;BME280;10759;51.982;9.232;2022-11-15T02:44:45;99812.53;;;10.16;100.00
21203;BME280;10759;51.982;9.232;2022-11-15T02:47:37;99806.19;;;10.19;100.00
21203;BME280;10759;51.982;9.232;2022-11-15T02:50:29;99803.66;;;10.16;100.00
21203;BME280;10759;51.982;9.232;2022-11-15T02:53:17;99807.69;;;10.05;100.00
21203;BME280;10759;51.982;9.232;2022-11-15T02:56:04;99810.09;;;10.12;100.00
21203;BME280;10759;51.982;9.232;2022-11-15T02:59:10;99807.13;;;10.18;100.00
21203;BME280;10759;51.982;9.232;2022-11-15T03:02:11;99807.94;;;10.20;100.00
21203;BME280;10759;51.982;9.232;2022-11-15T03:05:09;99773.84;;;10.04;100.00
21203;BME280;10759;51.982;9.232;2022-11-15T03:08:04;99758.25;;;9.94;100.00
21203;BME280;10759;51.982;9.232;2022-11-15T03:11:03;99801.13;;;10.13;100.00
21203;BME280;10759;51.982;9.232;2022-11-15T03:13:56;99807.41;;;10.12;100.00
21203;BME280;10759;51.982;9.232;2022-11-15T03:16:47;99796.56;;;10.15;100.00
21203;BME280;10759;51.982;9.232;2022-11-15T03:19:40;99796.81;;;10.08;100.00
21203;BME280;10759;51.982;9.232;2022-11-15T03:22:34;99793.22;;;10.09;100.00
21203;BME280;10759;51.982;9.232;2022-11-15T03:25:24;99742.38;;;9.89;100.00
21203;BME280;10759;51.982;9.232;2022-11-15T03:28:22;99795.41;;;10.20;100.00
21203;BME280;10759;51.982;9.232;2022-11-15T03:31:12;99783.47;;;10.29;100.00
21203;BME280;10759;51.982;9.232;2022-11-15T03:34:19;99719.47;;;9.83;100.00
21203;BME280;10759;51.982;9.232;2022-11-15T03:37:08;99783.03;;;10.18;100.00
21203;BME280;10759;51.982;9.232;2022-11-15T03:39:59;99789.91;;;10.23;100.00
21203;BME280;10759;51.982;9.232;2022-11-15T03:42:50;99791.38;;;10.12;100.00
21203;BME280;10759;51.982;9.232;2022-11-15T03:45:43;99797.38;;;9.96;100.00
21203;BME280;10759;51.982;9.232;2022-11-15T03:48:35;99792.56;;;9.84;100.00
21203;BME280;10759;51.982;9.232;2022-11-15T03:51:23;99794.19;;;9.88;100.00
21203;BME280;10759;51.982;9.232;2022-11-15T03:54:11;99796.56;;;9.94;100.00
21203;BME280;10759;51.982;9.232;2022-11-15T03:57:00;99788.38;;;9.78;100.00
21203;BME280;10759;51.982;9.232;2022-11-15T03:59:46;99777.34;;;9.65;100.00
21203;BME280;10759;51.982;9.232;2022-11-15T04:02:33;99792.84;;;9.78;100.00
21203;BME280;10759;51.982;9.232;2022-11-15T04:05:20;99794.72;;;9.76;100.00
21203;BME280;10759;51.982;9.232;2022-11-15T04:08:07;99786.22;;;9.66;100.00
21203;BME280;10759;51.982;9.232;2022-11-15T04:10:53;99785.56;;;9.61;100.00
21203;BME280;10759;51.982;9.232;2022-11-15T04:13:41;99758.06;;;9.57;100.00
21203;BME280;10759;51.982;9.232;2022-11-15T04:16:28;99789.84;;;9.65;100.00
21203;BME280;10759;51.982;9.232;2022-11-15T04:19:15;99787.38;;;9.60;100.00
21203;BME280;10759;51.982;9.232;2022-11-15T04:22:18;99769.91;;;9.52;100.00
21203;BME280;10759;51.982;9.232;2022-11-15T04:25:37;99770.72;;;9.54;100.00
21203;BME280;10759;51.982;9.232;2022-11-15T04:28:24;99782.84;;;9.62;100.00
21203;BME280;10759;51.982;9.232;2022-11-15T04:31:11;99776.91;;;9.54;100.00
21203;BME280;10759;51.982;9.232;2022-11-15T04:33:58;99786.56;;;9.58;100.00
21203;BME280;10759;51.982;9.232;2022-11-15T04:36:44;99776.09;;;9.32;100.00
21203;BME280;10759;51.982;9.232;2022-11-15T04:39:48;99762.38;;;9.19;100.00
21203;BME280;10759;51.982;9.232;2022-11-15T04:42:35;99794.69;;;9.35;100.00
21203;BME280;10759;51.982;9.232;2022-11-15T04:45:22;99789.34;;;9.35;100.00
21203;BME280;10759;51.982;9.232;2022-11-15T04:48:10;99795.97;;;9.46;100.00
21203;BME280;10759;51.982;9.232;2022-11-15T04:50:58;99794.44;;;9.41;100.00
21203;BME280;10759;51.982;9.232;2022-11-15T04:53:44;99799.94;;;9.38;100.00
21203;BME280;10759;51.982;9.232;2022-11-15T04:56:31;99794.25;;;9.45;100.00
21203;BME280;10759;51.982;9.232;2022-11-15T04:59:18;99797.66;;;9.49;100.00
21203;BME280;10759;51.982;9.232;2022-11-15T05:02:05;99793.63;;;9.59;100.00
21203;BME280;10759;51.982;9.232;2022-11-15T05:04:53;99785.56;;;9.61;100.00
21203;BME280;10759;51.982;9.232;2022-11-15T05:07:38;99788.03;;;9.65;100.00
21203;BME280;10759;51.982;9.232;2022-11-15T05:10:25;99790.56;;;9.68;100.00
21203;BME280;10759;51.982;9.232;2022-11-15T05:13:12;99786.41;;;9.82;100.00
21203;BME280;10759;51.982;9.232;2022-11-15T05:15:58;99786.63;;;9.77;100.00
21203;BME280;10759;51.982;9.232;2022-11-15T05:18:45;99788.88;;;9.86;100.00
21203;BME280;10759;51.982;9.232;2022-11-15T05:21:33;99776.41;;;9.87;100.00
21203;BME280;10759;51.982;9.232;2022-11-15T05:24:20;99783.88;;;9.99;100.00
21203;BME280;10759;51.982;9.232;2022-11-15T05:27:06;99772.81;;;10.07;100.00
21203;BME280;10759;51.982;9.232;2022-11-15T05:29:53;99792.63;;;10.03;100.00
21203;BME280;10759;51.982;9.232;2022-11-15T05:32:40;99773.38;;;10.14;100.00
21203;BME280;10759;51.982;9.232;2022-11-15T05:35:30;99781.69;;;10.28;100.00
21203;BME280;10759;51.982;9.232;2022-11-15T05:38:19;99752.41;;;10.04;100.00
21203;BME280;10759;51.982;9.232;2022-11-15T05:41:06;99759.94;;;10.15;100.00
21203;BME280;10759;51.982;9.232;2022-11-15T05:43:53;99764.72;;;10.29;100.00
21203;BME280;10759;51.982;9.232;2022-11-15T05:46:40;99780.19;;;10.60;100.00
21203;BME280;10759;51.982;9.232;2022-11-15T05:49:31;99791.44;;;10.68;100.00
21203;BME280;10759;51.982;9.232;2022-11-15T05:52:20;99783.94;;;10.75;100.00
21203;BME280;10759;51.982;9.232;2022-11-15T05:55:10;99774.34;;;10.71;100.00
21203;BME280;10759;51.982;9.232;2022-11-15T05:57:57;99774.03;;;10.58;100.00
21203;BME280;10759;51.982;9.232;2022-11-15T06:00:43;99772.66;;;10.49;100.00
21203;BME280;10759;51.982;9.232;2022-11-15T06:03:30;99771.06;;;10.45;100.00
21203;BME280;10759;51.982;9.232;2022-11-15T06:06:17;99777.53;;;10.41;100.00
21203;BME280;10759;51.982;9.232;2022-11-15T06:09:04;99772.28;;;10.38;100.00
21203;BME280;10759;51.982;9.232;2022-11-15T06:11:52;99777.94;;;10.32;100.00
21203;BME280;10759;51.982;9.232;2022-11-15T06:14:38;99769.66;;;10.18;100.00
21203;BME280;10759;51.982;9.232;2022-11-15T06:17:25;99775.59;;;10.24;100.00
21203;BME280;10759;51.982;9.232;2022-11-15T06:20:12;99781.22;;;10.18;100.00
21203;BME280;10759;51.982;9.232;2022-11-15T06:22:58;99687.25;;;9.66;100.00
21203;BME280;10759;51.982;9.232;2022-11-15T06:25:45;99780.22;;;10.21;100.00
21203;BME280;10759;51.982;9.232;2022-11-15T06:28:34;99744.19;;;9.88;100.00
21203;BME280;10759;51.982;9.232;2022-11-15T06:31:20;99771.94;;;10.06;100.00
21203;BME280;10759;51.982;9.232;2022-11-15T06:34:07;99762.47;;;9.99;100.00
21203;BME280;10759;51.982;9.232;2022-11-15T06:36:54;99684.41;;;9.50;100.00
21203;BME280;10759;51.982;9.232;2022-11-15T06:39:40;99769.50;;;10.02;100.00
21203;BME280;10759;51.982;9.232;2022-11-15T06:42:26;99766.53;;;10.08;100.00
21203;BME280;10759;51.982;9.232;2022-11-15T06:45:14;99769.69;;;9.97;100.00
21203;BME280;10759;51.982;9.232;2022-11-15T06:48:01;99774.38;;;9.92;100.00
21203;BME280;10759;51.982;9.232;2022-11-15T06:50:50;99778.19;;;10.07;100.00
21203;BME280;10759;51.982;9.232;2022-11-15T06:53:37;99763.44;;;9.97;100.00
21203;BME280;10759;51.982;9.232;2022-11-15T06:56:23;99765.00;;;10.02;100.00
21203;BME280;10759;51.982;9.232;2022-11-15T06:59:10;99767.00;;;9.97;100.00
21203;BME280;10759;51.982;9.232;2022-11-15T07:01:57;99793.09;;;10.13;100.00
21203;BME280;10759;51.982;9.232;2022-11-15T07:04:44;99795.09;;;10.07;100.00
21203;BME280;10759;51.982;9.232;2022-11-15T07:07:31;99784.81;;;9.98;100.00
21203;BME280;10759;51.982;9.232;2022-11-15T07:10:18;99789.44;;;9.95;100.00
21203;BME280;10759;51.982;9.232;2022-11-15T07:13:04;99789.16;;;10.01;100.00
21203;BME280;10759;51.982;9.232;2022-11-15T07:15:51;99733.25;;;9.74;100.00
21203;BME280;10759;51.982;9.232;2022-11-15T07:18:40;99796.03;;;10.06;100.00
21203;BME280;10759;51.982;9.232;2022-11-15T07:21:27;99787.41;;;10.00;100.00
21203;BME280;10759;51.982;9.232;2022-11-15T07:24:13;99795.34;;;10.01;100.00
21203;BME280;10759;51.982;9.232;2022-11-15T07:26:59;99779.78;;;9.91;100.00
21203;BME280;10759;51.982;9.232;2022-11-15T07:29:46;99803.00;;;10.10;100.00
21203;BME280;10759;51.982;9.232;2022-11-15T07:32:34;99804.94;;;10.07;100.00
21203;BME280;10759;51.982;9.232;2022-11-15T07:35:22;99776.25;;;9.90;100.00
21203;BME280;10759;51.982;9.232;2022-11-15T07:38:09;99802.94;;;10.12;100.00
21203;BME280;10759;51.982;9.232;2022-11-15T07:40:56;99805.16;;;10.02;100.00
21203;BME280;10759;51.982;9.232;2022-11-15T07:43:43;99802.31;;;10.05;100.00
21203;BME280;10759;51.982;9.232;2022-11-15T07:46:29;99715.81;;;9.65;100.00
21203;BME280;10759;51.982;9.232;2022-11-15T07:49:17;99789.19;;;10.20;100.00
21203;BME280;10759;51.982;9.232;2022-11-15T07:52:04;99789.53;;;10.32;100.00
21203;BME280;10759;51.982;9.232;2022-11-15T07:54:51;99802.41;;;10.43;100.00
21203;BME280;10759;51.982;9.232;2022-11-15T07:57:37;99803.59;;;10.57;100.00
21203;BME280;10759;51.982;9.232;2022-11-15T08:00:24;99803.00;;;10.69;100.00
21203;BME280;10759;51.982;9.232;2022-11-15T08:03:12;99808.00;;;10.77;100.00
21203;BME280;10759;51.982;9.232;2022-11-15T08:05:59;99770.28;;;10.62;100.00
21203;BME280;10759;51.982;9.232;2022-11-15T08:08:47;99807.09;;;10.95;100.00
21203;BME280;10759;51.982;9.232;2022-11-15T08:11:34;99820.06;;;11.04;100.00
21203;BME280;10759;51.982;9.232;2022-11-15T08:14:21;99797.44;;;11.10;100.00
21203;BME280;10759;51.982;9.232;2022-11-15T08:17:08;99799.59;;;11.21;100.00
21203;BME280;10759;51.982;9.232;2022-11-15T08:19:54;99815.94;;;11.33;100.00
21203;BME280;10759;51.982;9.232;2022-11-15T08:22:41;99803.50;;;11.50;100.00
21203;BME280;10759;51.982;9.232;2022-11-15T08:25:30;99791.66;;;11.54;100.00
21203;BME280;10759;51.982;9.232;2022-11-15T08:28:17;99795.94;;;11.75;100.00
21203;BME280;10759;51.982;9.232;2022-11-15T08:31:04;99798.03;;;11.86;100.00
21203;BME280;10759;51.982;9.232;2022-11-15T08:33:51;99795.88;;;11.94;100.00
21203;BME280;10759;51.982;9.232;2022-11-15T08:36:37;99802.00;;;12.14;100.00
21203;BME280;10759;51.982;9.232;2022-11-15T08:39:30;99768.38;;;12.22;100.00
21203;BME280;10759;51.982;9.232;2022-11-15T08:42:18;99776.41;;;12.40;100.00
21203;BME280;10759;51.982;9.232;2022-11-15T08:45:07;99776.41;;;12.40;100.00
21203;BME280;10759;51.982;9.232;2022-11-15T08:47:54;99779.56;;;12.48;100.00
21203;BME280;10759;51.982;9.232;2022-11-15T08:50:40;99755.16;;;12.35;100.00
21203;BME280;10759;51.982;9.232;2022-11-15T08:53:28;99773.81;;;12.54;100.00
21203;BME280;10759;51.982;9.232;2022-11-15T08:56:15;99786.81;;;12.62;100.00
21203;BME280;10759;51.982;9.232;2022-11-15T08:59:03;99778.69;;;12.63;100.00
21203;BME280;10759;51.982;9.232;2022-11-15T09:01:50;99781.97;;;12.68;100.00
21203;BME280;10759;51.982;9.232;2022-11-15T09:04:39;99789.63;;;12.76;100.00
21203;BME280;10759;51.982;9.232;2022-11-15T09:07:26;99728.81;;;12.42;100.00
21203;BME280;10759;51.982;9.232;2022-11-15T09:10:15;99790.66;;;12.74;100.00
21203;BME280;10759;51.982;9.232;2022-11-15T09:13:02;99731.50;;;12.42;100.00
21203;BME280;10759;51.982;9.232;2022-11-15T09:15:49;99797.41;;;12.81;100.00
21203;BME280;10759;51.982;9.232;2022-11-15T09:18:36;99798.81;;;12.88;100.00
21203;BME280;10759;51.982;9.232;2022-11-15T09:21:23;99802.19;;;12.92;100.00
21203;BME280;10759;51.982;9.232;2022-11-15T09:24:10;99798.13;;;13.00;100.00
21203;BME280;10759;51.982;9.232;2022-11-15T09:26:56;99793.34;;;13.05;100.00
21203;BME280;10759;51.982;9.232;2022-11-15T09:29:43;99796.03;;;13.05;100.00
21203;BME280;10759;51.982;9.232;2022-11-15T09:32:30;99781.19;;;12.98;100.00
21203;BME280;10759;51.982;9.232;2022-11-15T09:35:23;99713.84;;;12.54;100.00
21203;BME280;10759;51.982;9.232;2022-11-15T09:38:10;99781.59;;;13.06;99.95
21203;BME280;10759;51.982;9.232;2022-11-15T09:41:25;99798.00;;;13.18;100.00
21203;BME280;10759;51.982;9.232;2022-11-15T09:44:29;99797.75;;;13.06;100.00
21203;BME280;10759;51.982;9.232;2022-11-15T09:47:45;99796.22;;;13.02;100.00
21203;BME280;10759;51.982;9.232;2022-11-15T09:50:40;99802.09;;;12.93;100.00
21203;BME280;10759;51.982;9.232;2022-11-15T09:53:13;99802.63;;;13.00;100.00
21203;BME280;10759;51.982;9.232;2022-11-15T09:55:47;99788.22;;;13.01;100.00
21203;BME280;10759;51.982;9.232;2022-11-15T09:58:24;99785.34;;;13.04;100.00
21203;BME280;10759;51.982;9.232;2022-11-15T10:00:57;99766.38;;;12.91;100.00
21203;BME280;10759;51.982;9.232;2022-11-15T10:03:33;99781.47;;;13.09;100.00
21203;BME280;10759;51.982;9.232;2022-11-15T10:06:04;99716.25;;;12.74;100.00
21203;BME280;10759;51.982;9.232;2022-11-15T10:08:37;99786.91;;;13.08;99.08
21203;BME280;10759;51.982;9.232;2022-11-15T10:11:11;99778.31;;;13.01;100.00
21203;BME280;10759;51.982;9.232;2022-11-15T10:14:09;99770.53;;;12.81;100.00
21203;BME280;10759;51.982;9.232;2022-11-15T10:20:03;99774.59;;;12.72;100.00
21203;BME280;10759;51.982;9.232;2022-11-15T10:22:39;99772.50;;;12.77;100.00
21203;BME280;10759;51.982;9.232;2022-11-15T10:25:16;99749.53;;;12.72;100.00
21203;BME280;10759;51.982;9.232;2022-11-15T10:27:50;99764.19;;;12.98;100.00
21203;BME280;10759;51.982;9.232;2022-11-15T10:30:20;99751.16;;;13.06;100.00
21203;BME280;10759;51.982;9.232;2022-11-15T10:32:48;99722.56;;;12.89;99.47
21203;BME280;10759;51.982;9.232;2022-11-15T10:35:23;99750.22;;;13.07;100.00
21203;BME280;10759;51.982;9.232;2022-11-15T10:37:51;99739.00;;;13.15;99.66
21203;BME280;10759;51.982;9.232;2022-11-15T10:40:21;99736.59;;;13.10;100.00
21203;BME280;10759;51.982;9.232;2022-11-15T10:43:04;99747.09;;;13.15;100.00
21203;BME280;10759;51.982;9.232;2022-11-15T10:45:33;99660.06;;;12.70;100.00
21203;BME280;10759;51.982;9.232;2022-11-15T10:48:20;99712.72;;;13.04;99.94
21203;BME280;10759;51.982;9.232;2022-11-15T10:50:52;99734.50;;;13.15;98.35
21203;BME280;10759;51.982;9.232;2022-11-15T10:53:27;99730.34;;;13.09;100.00
21203;BME280;10759;51.982;9.232;2022-11-15T10:56:00;99592.50;;;12.30;99.29
21203;BME280;10759;51.982;9.232;2022-11-15T10:58:36;99724.72;;;12.98;99.68
21203;BME280;10759;51.982;9.232;2022-11-15T11:01:13;99716.56;;;13.00;99.33
21203;BME280;10759;51.982;9.232;2022-11-15T11:03:43;99709.38;;;13.00;100.00
21203;BME280;10759;51.982;9.232;2022-11-15T11:06:15;99716.00;;;13.09;100.00
21203;BME280;10759;51.982;9.232;2022-11-15T11:08:54;99703.22;;;12.98;100.00
21203;BME280;10759;51.982;9.232;2022-11-15T11:11:23;99705.72;;;13.01;100.00
21203;BME280;10759;51.982;9.232;2022-11-15T11:13:52;99704.03;;;13.15;100.00
21203;BME280;10759;51.982;9.232;2022-11-15T11:16:32;99701.63;;;13.10;100.00
21203;BME280;10759;51.982;9.232;2022-11-15T11:19:15;99635.34;;;12.79;100.00
21203;BME280;10759;51.982;9.232;2022-11-15T11:21:51;99689.16;;;13.23;98.86
21203;BME280;10759;51.982;9.232;2022-11-15T11:24:30;99697.97;;;13.27;98.90
21203;BME280;10759;51.982;9.232;2022-11-15T11:27:14;99694.31;;;13.28;98.95
21203;BME280;10759;51.982;9.232;2022-11-15T11:29:56;99692.47;;;13.28;97.95
21203;BME280;10759;51.982;9.232;2022-11-15T11:35:24;99680.78;;;13.29;98.27
21203;BME280;10759;51.982;9.232;2022-11-15T11:38:06;99685.56;;;13.39;98.37
21203;BME280;10759;51.982;9.232;2022-11-15T11:40:54;99657.63;;;13.27;97.43
21203;BME280;10759;51.982;9.232;2022-11-15T11:43:34;99680.50;;;13.34;96.92
21203;BME280;10759;51.982;9.232;2022-11-15T11:46:18;99576.47;;;12.74;98.17
21203;BME280;10759;51.982;9.232;2022-11-15T11:48:57;99671.97;;;13.26;98.94
21203;BME280;10759;51.982;9.232;2022-11-15T11:51:34;99673.28;;;13.35;98.32
21203;BME280;10759;51.982;9.232;2022-11-15T11:54:12;99662.72;;;13.31;98.07
21203;BME280;10759;51.982;9.232;2022-11-15T11:56:44;99630.09;;;13.22;99.42
21203;BME280;10759;51.982;9.232;2022-11-15T11:59:24;99661.84;;;13.45;99.53
21203;BME280;10759;51.982;9.232;2022-11-15T12:01:54;99650.31;;;13.43;98.53
21203;BME280;10759;51.982;9.232;2022-11-15T12:04:28;99639.16;;;13.35;98.30
21203;BME280;10759;51.982;9.232;2022-11-15T12:07:00;99652.66;;;13.49;99.14
21203;BME280;10759;51.982;9.232;2022-11-15T12:09:33;99649.97;;;13.49;97.85
21203;BME280;10759;51.982;9.232;2022-11-15T12:12:08;99603.00;;;13.25;98.38
21203;BME280;10759;51.982;9.232;2022-11-15T12:14:42;99639.38;;;13.46;98.34
21203;BME280;10759;51.982;9.232;2022-11-15T12:17:13;99616.09;;;13.31;98.20
21203;BME280;10759;51.982;9.232;2022-11-15T12:19:41;99625.53;;;13.38;97.79
21203;BME280;10759;51.982;9.232;2022-11-15T12:22:13;99640.44;;;13.44;96.90
21203;BME280;10759;51.982;9.232;2022-11-15T12:24:50;99636.09;;;13.41;98.62
21203;BME280;10759;51.982;9.232;2022-11-15T12:27:30;99634.16;;;13.43;96.93
21203;BME280;10759;51.982;9.232;2022-11-15T12:30:03;99611.00;;;13.41;97.83
21203;BME280;10759;51.982;9.232;2022-11-15T12:32:34;99625.16;;;13.44;97.75
21203;BME280;10759;51.982;9.232;2022-11-15T12:35:04;99611.78;;;13.43;97.04
21203;BME280;10759;51.982;9.232;2022-11-15T12:37:51;99611.00;;;13.41;97.42
21203;BME280;10759;51.982;9.232;2022-11-15T12:40:28;99578.09;;;13.21;98.28
21203;BME280;10759;51.982;9.232;2022-11-15T12:46:01;99605.91;;;13.50;97.76
21203;BME280;10759;51.982;9.232;2022-11-15T12:48:57;99602.38;;;13.50;98.16
21203;BME280;10759;51.982;9.232;2022-11-15T12:54:50;99601.81;;;13.59;96.00
21203;BME280;10759;51.982;9.232;2022-11-15T12:57:40;99590.56;;;13.52;95.34
21203;BME280;10759;51.982;9.232;2022-11-15T13:00:37;99582.56;;;13.51;94.78
21203;BME280;10759;51.982;9.232;2022-11-15T13:03:26;99546.50;;;13.25;95.10
21203;BME280;10759;51.982;9.232;2022-11-15T13:06:08;99577.00;;;13.40;96.51
21203;BME280;10759;51.982;9.232;2022-11-15T13:08:49;99574.03;;;13.44;95.29
21203;BME280;10759;51.982;9.232;2022-11-15T13:14:47;99579.41;;;13.30;96.77
21203;BME280;10759;51.982;9.232;2022-11-15T13:17:39;99581.13;;;13.31;97.42
21203;BME280;10759;51.982;9.232;2022-11-15T13:20:28;99552.84;;;13.09;98.08
21203;BME280;10759;51.982;9.232;2022-11-15T13:23:02;99564.47;;;13.24;97.31
21203;BME280;10759;51.982;9.232;2022-11-15T13:25:57;99522.16;;;12.98;98.36
21203;BME280;10759;51.982;9.232;2022-11-15T13:28:32;99563.78;;;13.21;98.41
21203;BME280;10759;51.982;9.232;2022-11-15T13:31:27;99553.03;;;13.21;98.57
21203;BME280;10759;51.982;9.232;2022-11-15T13:33:59;99554.47;;;13.12;99.19
21203;BME280;10759;51.982;9.232;2022-11-15T13:36:30;99552.94;;;13.22;98.88
21203;BME280;10759;51.982;9.232;2022-11-15T13:39:03;99556.38;;;13.10;99.48
21203;BME280;10759;51.982;9.232;2022-11-15T13:41:32;99553.41;;;13.15;99.76
21203;BME280;10759;51.982;9.232;2022-11-15T13:44:03;99556.19;;;13.13;99.99
21203;BME280;10759;51.982;9.232;2022-11-15T13:46:33;99552.16;;;13.20;100.00
21203;BME280;10759;51.982;9.232;2022-11-15T13:49:02;99543.81;;;13.25;100.00
21203;BME280;10759;51.982;9.232;2022-11-15T13:51:35;99510.34;;;13.00;99.78
21203;BME280;10759;51.982;9.232;2022-11-15T13:54:13;99550.44;;;13.19;100.00
21203;BME280;10759;51.982;9.232;2022-11-15T13:56:45;99508.03;;;12.94;100.00
21203;BME280;10759;51.982;9.232;2022-11-15T13:59:24;99545.44;;;13.13;100.00
21203;BME280;10759;51.982;9.232;2022-11-15T14:01:55;99549.38;;;13.22;100.00
21203;BME280;10759;51.982;9.232;2022-11-15T14:04:25;99542.94;;;13.24;100.00
21203;BME280;10759;51.982;9.232;2022-11-15T14:06:57;99535.50;;;13.29;99.13
21203;BME280;10759;51.982;9.232;2022-11-15T14:09:30;99535.03;;;13.21;100.00
21203;BME280;10759;51.982;9.232;2022-11-15T14:12:01;99532.88;;;13.28;100.00
21203;BME280;10759;51.982;9.232;2022-11-15T14:14:30;99531.16;;;13.27;98.95
21203;BME280;10759;51.982;9.232;2022-11-15T14:17:00;99529.22;;;13.29;99.50
21203;BME280;10759;51.982;9.232;2022-11-15T14:19:37;99529.34;;;13.27;99.73
21203;BME280;10759;51.982;9.232;2022-11-15T14:22:14;99448.78;;;12.81;99.29
21203;BME280;10759;51.982;9.232;2022-11-15T14:24:44;99501.81;;;13.08;100.00
21203;BME280;10759;51.982;9.232;2022-11-15T14:27:20;99523.34;;;13.22;100.00
21203;BME280;10759;51.982;9.232;2022-11-15T14:29:48;99525.25;;;13.20;99.49
21203;BME280;10759;51.982;9.232;2022-11-15T14:32:19;99493.94;;;13.05;99.76
21203;BME280;10759;51.982;9.232;2022-11-15T14:34:48;99513.75;;;13.32;99.21
21203;BME280;10759;51.982;9.232;2022-11-15T14:37:23;99417.19;;;12.71;99.50
21203;BME280;10759;51.982;9.232;2022-11-15T14:39:52;99502.38;;;13.13;99.76
21203;BME280;10759;51.982;9.232;2022-11-15T14:42:23;99514.06;;;13.28;100.00